createdAt,value
2018-09-30T04:32:18.417Z,7
2018-09-30T05:22:39.572Z,7
2018-09-30T05:41:33.449Z,7
2018-09-30T06:32:15.748Z,7
2018-09-30T06:42:27.862Z,7
2018-09-30T06:51:58.929Z,7
2018-09-30T07:11:26.841Z,8
2018-09-30T08:33:14.055Z,11
2018-09-30T08:52:05.120Z,12
2018-09-30T10:42:23.814Z,14
2018-09-30T11:02:34.341Z,15
2018-09-30T11:11:27.945Z,15
2018-09-30T11:21:48.578Z,15
2018-09-30T11:31:34.071Z,16
2018-09-30T11:41:37.449Z,15
2018-09-30T11:51:32.674Z,16
2018-09-30T12:01:33.440Z,16
2018-09-30T12:11:32.344Z,16
2018-09-30T12:21:28.132Z,16
2018-09-30T12:31:28.284Z,16
2018-09-30T12:41:33.763Z,17
2018-09-30T12:51:32.252Z,16
2018-09-30T13:01:31.599Z,17
2018-09-30T13:11:27.679Z,17
2018-09-30T13:21:30.146Z,16
2018-09-30T13:31:44.631Z,16
2018-09-30T13:41:27.965Z,16
2018-09-30T13:51:29.336Z,16
2018-09-30T14:01:32.909Z,16
2018-09-30T14:11:27.846Z,16
2018-09-30T14:21:58.817Z,16
2018-09-30T14:31:35.246Z,16
2018-09-30T14:41:27.181Z,17
2018-09-30T14:51:29.955Z,17
2018-09-30T15:11:47.324Z,17
2018-09-30T15:21:32.929Z,16
2018-09-30T15:41:32.787Z,16
2018-09-30T15:51:33.684Z,16
2018-09-30T16:01:33.719Z,16
2018-09-30T16:11:27.494Z,16
2018-09-30T16:21:27.619Z,15
2018-09-30T16:31:28.719Z,15
2018-09-30T16:41:31.845Z,15
2018-09-30T16:51:28.668Z,14
2018-09-30T18:31:34.207Z,13
2018-09-30T18:41:51.127Z,13
2018-09-30T18:51:28.442Z,13
2018-09-30T19:01:36.508Z,12
2018-09-30T19:11:32.764Z,12
2018-09-30T19:21:34.732Z,12
2018-09-30T19:31:37.519Z,12
2018-09-30T19:41:33.994Z,12
2018-09-30T19:51:30.382Z,12
2018-09-30T20:01:28.062Z,11
2018-09-30T20:11:28.306Z,12
2018-09-30T20:21:28.852Z,11
2018-09-30T20:31:38.579Z,11
2018-09-30T20:41:35.361Z,11
2018-09-30T20:51:34.655Z,11
2018-09-30T21:01:35.085Z,11
2018-09-30T21:12:14.691Z,11
2018-09-30T21:21:48.667Z,11
2018-09-30T21:31:38.560Z,11
2018-09-30T21:41:30.610Z,11
2018-09-30T21:51:33.833Z,10
2018-09-30T22:01:34.088Z,10
2018-09-30T22:11:42.093Z,10
2018-09-30T22:21:28.082Z,9
2018-09-30T22:31:30.459Z,10
2018-09-30T22:41:30.162Z,10
2018-09-30T22:51:49.778Z,10
2018-09-30T23:01:28.211Z,10
2018-09-30T23:11:28.669Z,9
2018-09-30T23:21:27.700Z,9
2018-09-30T23:31:28.405Z,9
2018-09-30T23:41:31.173Z,9
2018-09-30T23:51:27.949Z,9
